sensor_id;sensor_type;location;lat;lon;timestamp;pressure;altitude;pressure_sealevel;temperature;humidity
53940;BME280;39850;43.324;21.916;2023-02-17T00:00:43;1003.0;;;3.6;68.0
53940;BME280;39850;43.324;21.916;2023-02-17T00:05:20;1003.0;;;3.6;68.0
53940;BME280;39850;43.324;21.916;2023-02-17T00:09:56;1003.0;;;3.5;68.0
53940;BME280;39850;43.324;21.916;2023-02-17T00:14:33;1003.0;;;3.5;68.0
53940;BME280;39850;43.324;21.916;2023-02-17T00:51:30;1003.0;;;3.6;69.0
53940;BME280;39850;43.324;21.916;2023-02-17T00:56:09;1003.0;;;3.6;69.0
53940;BME280;39850;43.324;21.916;2023-02-17T01:00:46;1003.0;;;3.6;69.0
53940;BME280;39850;43.324;21.916;2023-02-17T01:05:22;1003.0;;;3.6;69.0
53940;BME280;39850;43.324;21.916;2023-02-17T01:09:59;1003.0;;;3.6;69.0
53940;BME280;39850;43.324;21.916;2023-02-17T01:14:35;1003.0;;;3.6;69.0
53940;BME280;39850;43.324;21.916;2023-02-17T01:19:18;1003.0;;;3.6;70.0
53940;BME280;39850;43.324;21.916;2023-02-17T01:24:05;1003.0;;;3.6;70.0
53940;BME280;39850;43.324;21.916;2023-02-17T01:28:50;1003.0;;;3.6;69.0
53940;BME280;39850;43.324;21.916;2023-02-17T01:33:28;1003.0;;;3.6;69.0
53940;BME280;39850;43.324;21.916;2023-02-17T02:11:10;1003.0;;;1.6;75.0
53940;BME280;39850;43.324;21.916;2023-02-17T02:16:22;1003.0;;;1.6;75.0
53940;BME280;39850;43.324;21.916;2023-02-17T02:22:52;1003.0;;;1.7;75.0
53940;BME280;39850;43.324;21.916;2023-02-17T02:28:31;1003.0;;;1.8;74.0
53940;BME280;39850;43.324;21.916;2023-02-17T02:33:45;1003.0;;;1.8;74.0
53940;BME280;39850;43.324;21.916;2023-02-17T02:38:56;1003.0;;;2.2;73.0
53940;BME280;39850;43.324;21.916;2023-02-17T02:43:36;1003.0;;;2.2;73.0
53940;BME280;39850;43.324;21.916;2023-02-17T02:48:13;1003.0;;;2.6;72.0
53940;BME280;39850;43.324;21.916;2023-02-17T02:54:03;1003.0;;;2.6;72.0
53940;BME280;39850;43.324;21.916;2023-02-17T03:32:36;1003.0;;;3.6;71.0
53940;BME280;39850;43.324;21.916;2023-02-17T03:37:13;1003.0;;;3.6;71.0
53940;BME280;39850;43.324;21.916;2023-02-17T03:41:50;1003.0;;;3.4;70.0
53940;BME280;39850;43.324;21.916;2023-02-17T03:46:27;1003.0;;;3.4;70.0
53940;BME280;39850;43.324;21.916;2023-02-17T03:51:19;1003.0;;;3.3;69.0
53940;BME280;39850;43.324;21.916;2023-02-17T03:55:56;1003.0;;;3.3;69.0
53940;BME280;39850;43.324;21.916;2023-02-17T04:00:33;1003.0;;;3.2;69.0
53940;BME280;39850;43.324;21.916;2023-02-17T04:05:10;1003.0;;;3.2;69.0
53940;BME280;39850;43.324;21.916;2023-02-17T04:09:48;1003.0;;;3.0;69.0
53940;BME280;39850;43.324;21.916;2023-02-17T04:14:25;1003.0;;;3.0;69.0
53940;BME280;39850;43.324;21.916;2023-02-17T04:51:20;1003.0;;;2.7;73.0
53940;BME280;39850;43.324;21.916;2023-02-17T04:55:57;1003.0;;;2.7;73.0
53940;BME280;39850;43.324;21.916;2023-02-17T05:00:34;1003.0;;;2.7;74.0
53940;BME280;39850;43.324;21.916;2023-02-17T05:05:11;1003.0;;;2.7;74.0
53940;BME280;39850;43.324;21.916;2023-02-17T05:09:48;1003.0;;;2.7;73.0
53940;BME280;39850;43.324;21.916;2023-02-17T05:14:26;1003.0;;;2.7;73.0
53940;BME280;39850;43.324;21.916;2023-02-17T05:19:04;1003.0;;;2.7;74.0
53940;BME280;39850;43.324;21.916;2023-02-17T05:23:40;1003.0;;;2.7;74.0
53940;BME280;39850;43.324;21.916;2023-02-17T05:28:17;1003.0;;;2.7;74.0
53940;BME280;39850;43.324;21.916;2023-02-17T05:32:54;1003.0;;;2.7;73.0
53940;BME280;39850;43.324;21.916;2023-02-17T05:37:31;1003.0;;;2.7;73.0
53940;BME280;39850;43.324;21.916;2023-02-17T06:09:47;1004.0;;;1.6;74.0
53940;BME280;39850;43.324;21.916;2023-02-17T06:14:23;1004.0;;;1.6;74.0
53940;BME280;39850;43.324;21.916;2023-02-17T06:19:00;1004.0;;;1.6;74.0
53940;BME280;39850;43.324;21.916;2023-02-17T06:23:36;1004.0;;;1.6;74.0
53940;BME280;39850;43.324;21.916;2023-02-17T06:28:14;1004.0;;;1.6;74.0
53940;BME280;39850;43.324;21.916;2023-02-17T06:32:51;1004.0;;;1.6;74.0
53940;BME280;39850;43.324;21.916;2023-02-17T06:37:28;1004.0;;;1.6;74.0
53940;BME280;39850;43.324;21.916;2023-02-17T06:42:05;1004.0;;;1.8;74.0
53940;BME280;39850;43.324;21.916;2023-02-17T06:46:42;1004.0;;;1.8;74.0
53940;BME280;39850;43.324;21.916;2023-02-17T06:51:19;1004.0;;;1.9;74.0
53940;BME280;39850;43.324;21.916;2023-02-17T06:55:56;1004.0;;;1.9;74.0
53940;BME280;39850;43.324;21.916;2023-02-17T07:42:06;1004.0;;;4.4;67.0
53940;BME280;39850;43.324;21.916;2023-02-17T07:46:42;1004.0;;;4.4;67.0
53940;BME280;39850;43.324;21.916;2023-02-17T07:51:24;1004.0;;;5.5;64.0
53940;BME280;39850;43.324;21.916;2023-02-17T07:56:07;1004.0;;;5.5;64.0
53940;BME280;39850;43.324;21.916;2023-02-17T08:00:43;1004.0;;;5.5;64.0
53940;BME280;39850;43.324;21.916;2023-02-17T08:05:20;1004.0;;;5.5;64.0
53940;BME280;39850;43.324;21.916;2023-02-17T08:09:56;1004.0;;;6.6;60.0
53940;BME280;39850;43.324;21.916;2023-02-17T08:14:33;1004.0;;;6.6;60.0
53940;BME280;39850;43.324;21.916;2023-02-17T08:19:10;1004.0;;;6.6;60.0
53940;BME280;39850;43.324;21.916;2023-02-17T09:00:43;1004.0;;;10.8;48.0
53940;BME280;39850;43.324;21.916;2023-02-17T09:05:20;1004.0;;;10.8;48.0
53940;BME280;39850;43.324;21.916;2023-02-17T09:09:57;1004.0;;;11.2;48.0
53940;BME280;39850;43.324;21.916;2023-02-17T09:14:35;1004.0;;;11.2;48.0
53940;BME280;39850;43.324;21.916;2023-02-17T09:19:11;1004.0;;;11.2;48.0
53940;BME280;39850;43.324;21.916;2023-02-17T09:23:51;1004.0;;;11.2;48.0
53940;BME280;39850;43.324;21.916;2023-02-17T09:28:28;1004.0;;;11.2;48.0
53940;BME280;39850;43.324;21.916;2023-02-17T09:33:06;1004.0;;;11.7;48.0
53940;BME280;39850;43.324;21.916;2023-02-17T09:37:45;1004.0;;;11.7;48.0
53940;BME280;39850;43.324;21.916;2023-02-17T10:12:57;1003.0;;;12.6;44.0
53940;BME280;39850;43.324;21.916;2023-02-17T10:18:04;1003.0;;;12.6;44.0
53940;BME280;39850;43.324;21.916;2023-02-17T10:23:06;1003.0;;;12.6;44.0
53940;BME280;39850;43.324;21.916;2023-02-17T10:28:17;1003.0;;;12.6;44.0
53940;BME280;39850;43.324;21.916;2023-02-17T10:33:22;1003.0;;;12.6;43.0
53940;BME280;39850;43.324;21.916;2023-02-17T10:38:48;1003.0;;;12.6;43.0
53940;BME280;39850;43.324;21.916;2023-02-17T10:43:33;1003.0;;;13.0;43.0
53940;BME280;39850;43.324;21.916;2023-02-17T10:48:34;1003.0;;;13.0;43.0
53940;BME280;39850;43.324;21.916;2023-02-17T10:53:26;1003.0;;;13.3;43.0
53940;BME280;39850;43.324;21.916;2023-02-17T10:58:33;1003.0;;;13.3;43.0
53940;BME280;39850;43.324;21.916;2023-02-17T11:32:51;1002.0;;;14.4;42.0
53940;BME280;39850;43.324;21.916;2023-02-17T11:37:27;1002.0;;;14.4;42.0
53940;BME280;39850;43.324;21.916;2023-02-17T11:42:16;1002.0;;;14.4;41.0
53940;BME280;39850;43.324;21.916;2023-02-17T11:47:42;1002.0;;;14.4;41.0
53940;BME280;39850;43.324;21.916;2023-02-17T11:53:33;1002.0;;;14.4;42.0
53940;BME280;39850;43.324;21.916;2023-02-17T11:59:37;1002.0;;;14.4;42.0
53940;BME280;39850;43.324;21.916;2023-02-17T12:05:14;1002.0;;;14.6;41.0
53940;BME280;39850;43.324;21.916;2023-02-17T12:11:03;1002.0;;;14.8;42.0
53940;BME280;39850;43.324;21.916;2023-02-17T12:16:50;1002.0;;;14.8;42.0
53940;BME280;39850;43.324;21.916;2023-02-17T12:53:52;1001.0;;;15.0;36.0
53940;BME280;39850;43.324;21.916;2023-02-17T12:58:34;1001.0;;;15.0;36.0
53940;BME280;39850;43.324;21.916;2023-02-17T13:03:12;1001.0;;;14.7;36.0
53940;BME280;39850;43.324;21.916;2023-02-17T13:08:15;1001.0;;;14.7;36.0
53940;BME280;39850;43.324;21.916;2023-02-17T13:13:11;1001.0;;;14.4;36.0
53940;BME280;39850;43.324;21.916;2023-02-17T13:18:02;1001.0;;;14.4;36.0
53940;BME280;39850;43.324;21.916;2023-02-17T13:22:46;1001.0;;;14.4;36.0
53940;BME280;39850;43.324;21.916;2023-02-17T13:27:39;1001.0;;;14.4;36.0
53940;BME280;39850;43.324;21.916;2023-02-17T13:32:37;1001.0;;;14.4;35.0
53940;BME280;39850;43.324;21.916;2023-02-17T13:37:43;1001.0;;;14.4;35.0
53940;BME280;39850;43.324;21.916;2023-02-17T14:11:26;1000.0;;;13.5;34.0
53940;BME280;39850;43.324;21.916;2023-02-17T14:16:19;1000.0;;;13.5;34.0
53940;BME280;39850;43.324;21.916;2023-02-17T14:21:25;1000.0;;;13.5;34.0
53940;BME280;39850;43.324;21.916;2023-02-17T14:26:31;1000.0;;;13.5;34.0
53940;BME280;39850;43.324;21.916;2023-02-17T14:31:21;1000.0;;;13.5;34.0
53940;BME280;39850;43.324;21.916;2023-02-17T14:36:06;1000.0;;;13.5;34.0
53940;BME280;39850;43.324;21.916;2023-02-17T14:40:42;1000.0;;;13.5;35.0
53940;BME280;39850;43.324;21.916;2023-02-17T14:45:19;1000.0;;;13.5;35.0
53940;BME280;39850;43.324;21.916;2023-02-17T14:49:56;1000.0;;;13.5;35.0
53940;BME280;39850;43.324;21.916;2023-02-17T14:54:33;1000.0;;;13.5;36.0
53940;BME280;39850;43.324;21.916;2023-02-17T14:59:10;1000.0;;;13.5;36.0
53940;BME280;39850;43.324;21.916;2023-02-17T15:32:00;1000.0;;;13.7;36.0
53940;BME280;39850;43.324;21.916;2023-02-17T15:36:39;1000.0;;;13.7;36.0
53940;BME280;39850;43.324;21.916;2023-02-17T15:41:26;1000.0;;;13.7;36.0
53940;BME280;39850;43.324;21.916;2023-02-17T15:46:19;1000.0;;;13.7;36.0
53940;BME280;39850;43.324;21.916;2023-02-17T15:50:56;1000.0;;;13.7;36.0
53940;BME280;39850;43.324;21.916;2023-02-17T15:55:34;1000.0;;;13.7;36.0
53940;BME280;39850;43.324;21.916;2023-02-17T16:00:27;1000.0;;;13.7;36.0
53940;BME280;39850;43.324;21.916;2023-02-17T16:05:09;1000.0;;;13.7;36.0
53940;BME280;39850;43.324;21.916;2023-02-17T16:09:45;1000.0;;;13.7;36.0
53940;BME280;39850;43.324;21.916;2023-02-17T16:14:36;1000.0;;;13.7;36.0
53940;BME280;39850;43.324;21.916;2023-02-17T16:19:14;1000.0;;;13.7;36.0
53940;BME280;39850;43.324;21.916;2023-02-17T16:51:58;1001.0;;;12.7;38.0
53940;BME280;39850;43.324;21.916;2023-02-17T16:56:49;1001.0;;;12.7;38.0
53940;BME280;39850;43.324;21.916;2023-02-17T17:01:28;1001.0;;;12.4;39.0
53940;BME280;39850;43.324;21.916;2023-02-17T17:06:28;1001.0;;;12.4;39.0
53940;BME280;39850;43.324;21.916;2023-02-17T17:11:05;1001.0;;;12.4;39.0
53940;BME280;39850;43.324;21.916;2023-02-17T17:15:53;1001.0;;;12.1;40.0
53940;BME280;39850;43.324;21.916;2023-02-17T17:20:38;1001.0;;;12.1;40.0
53940;BME280;39850;43.324;21.916;2023-02-17T17:25:16;1001.0;;;12.0;40.0
53940;BME280;39850;43.324;21.916;2023-02-17T17:29:54;1001.0;;;12.0;40.0
53940;BME280;39850;43.324;21.916;2023-02-17T17:34:30;1001.0;;;11.8;40.0
53940;BME280;39850;43.324;21.916;2023-02-17T17:39:24;1001.0;;;11.8;40.0
53940;BME280;39850;43.324;21.916;2023-02-17T18:11:44;1001.0;;;9.8;46.0
53940;BME280;39850;43.324;21.916;2023-02-17T18:16:31;1001.0;;;9.8;46.0
53940;BME280;39850;43.324;21.916;2023-02-17T18:21:08;1001.0;;;9.8;46.0
53940;BME280;39850;43.324;21.916;2023-02-17T18:25:45;1001.0;;;9.7;46.0
53940;BME280;39850;43.324;21.916;2023-02-17T18:30:23;1001.0;;;9.7;46.0
53940;BME280;39850;43.324;21.916;2023-02-17T18:35:00;1001.0;;;9.6;46.0
53940;BME280;39850;43.324;21.916;2023-02-17T18:39:37;1001.0;;;9.6;46.0
53940;BME280;39850;43.324;21.916;2023-02-17T18:44:13;1001.0;;;9.3;47.0
53940;BME280;39850;43.324;21.916;2023-02-17T18:48:50;1001.0;;;9.3;47.0
53940;BME280;39850;43.324;21.916;2023-02-17T18:53:27;1001.0;;;9.0;48.0
53940;BME280;39850;43.324;21.916;2023-02-17T18:58:05;1001.0;;;9.0;48.0
53940;BME280;39850;43.324;21.916;2023-02-17T19:35:06;1001.0;;;7.1;52.0
53940;BME280;39850;43.324;21.916;2023-02-17T19:39:44;1001.0;;;7.1;52.0
53940;BME280;39850;43.324;21.916;2023-02-17T19:44:21;1001.0;;;7.6;52.0
53940;BME280;39850;43.324;21.916;2023-02-17T19:48:58;1001.0;;;7.6;52.0
53940;BME280;39850;43.324;21.916;2023-02-17T19:53:36;1001.0;;;7.6;52.0
53940;BME280;39850;43.324;21.916;2023-02-17T19:58:13;1001.0;;;7.6;52.0
53940;BME280;39850;43.324;21.916;2023-02-17T20:02:49;1001.0;;;7.9;52.0
53940;BME280;39850;43.324;21.916;2023-02-17T20:07:28;1001.0;;;7.9;52.0
53940;BME280;39850;43.324;21.916;2023-02-17T20:12:06;1001.0;;;7.6;52.0
53940;BME280;39850;43.324;21.916;2023-02-17T20:16:43;1001.0;;;7.6;52.0
53940;BME280;39850;43.324;21.916;2023-02-17T20:21:31;1001.0;;;7.6;52.0
53940;BME280;39850;43.324;21.916;2023-02-17T20:54:14;1001.0;;;6.7;56.0
53940;BME280;39850;43.324;21.916;2023-02-17T20:58:52;1001.0;;;6.7;56.0
53940;BME280;39850;43.324;21.916;2023-02-17T21:03:29;1001.0;;;6.4;57.0
53940;BME280;39850;43.324;21.916;2023-02-17T21:08:06;1001.0;;;6.4;57.0
53940;BME280;39850;43.324;21.916;2023-02-17T21:12:44;1001.0;;;6.2;56.0
53940;BME280;39850;43.324;21.916;2023-02-17T21:17:20;1001.0;;;6.2;56.0
53940;BME280;39850;43.324;21.916;2023-02-17T21:21:57;1001.0;;;6.2;56.0
53940;BME280;39850;43.324;21.916;2023-02-17T21:26:33;1001.0;;;6.2;57.0
53940;BME280;39850;43.324;21.916;2023-02-17T21:31:12;1001.0;;;6.2;57.0
53940;BME280;39850;43.324;21.916;2023-02-17T21:35:53;1001.0;;;6.2;56.0
53940;BME280;39850;43.324;21.916;2023-02-17T21:40:30;1001.0;;;6.2;56.0
53940;BME280;39850;43.324;21.916;2023-02-17T22:12:48;1001.0;;;6.4;59.0
53940;BME280;39850;43.324;21.916;2023-02-17T22:17:25;1001.0;;;6.4;59.0
53940;BME280;39850;43.324;21.916;2023-02-17T22:22:02;1001.0;;;6.4;59.0
53940;BME280;39850;43.324;21.916;2023-02-17T22:26:41;1001.0;;;6.4;60.0
53940;BME280;39850;43.324;21.916;2023-02-17T22:31:29;1001.0;;;6.4;60.0
53940;BME280;39850;43.324;21.916;2023-02-17T22:36:19;1001.0;;;6.4;60.0
53940;BME280;39850;43.324;21.916;2023-02-17T22:40:59;1001.0;;;6.4;60.0
53940;BME280;39850;43.324;21.916;2023-02-17T22:45:41;1001.0;;;6.2;60.0
53940;BME280;39850;43.324;21.916;2023-02-17T22:50:18;1001.0;;;6.2;60.0
53940;BME280;39850;43.324;21.916;2023-02-17T22:54:55;1001.0;;;5.9;60.0
53940;BME280;39850;43.324;21.916;2023-02-17T22:59:33;1001.0;;;5.9;60.0
53940;BME280;39850;43.324;21.916;2023-02-17T23:36:47;1001.0;;;5.3;61.0
53940;BME280;39850;43.324;21.916;2023-02-17T23:41:26;1001.0;;;5.3;61.0
53940;BME280;39850;43.324;21.916;2023-02-17T23:46:03;1001.0;;;5.2;62.0
53940;BME280;39850;43.324;21.916;2023-02-17T23:50:42;1001.0;;;5.2;62.0
53940;BME280;39850;43.324;21.916;2023-02-17T23:55:19;1001.0;;;5.2;62.0
53940;BME280;39850;43.324;21.916;2023-02-17T23:59:55;1001.0;;;5.2;62.0
